Time;durP1;ratioP1;P1;durP2;ratioP2;P2;SDS_P1;SDS_P2;PMS_P1;PMS_P2;Temp;Humidity;BMP_temperature;BMP_pressure;BME280_temperature;BME280_humidity;BME280_pressure;Samples;Min_cycle;Max_cycle;Signal;HPM_P1;HPM_P2
2022/06/25 00:01:25;;;;;;;0.50;0.50;;;18.10;78.80;;;;;;5092060;28;20083;-74
2022/06/25 00:03:50;;;;;;;0.40;0.40;;;18.00;78.70;;;;;;5091656;28;20040;-73
2022/06/25 00:06:17;;;;;;;0.38;0.38;;;18.10;78.80;;;;;;5091509;28;20046;-74
2022/06/25 00:08:45;;;;;;;0.95;0.32;;;18.10;78.90;;;;;;5073394;28;20129;-74
2022/06/25 00:13:49;;;;;;;0.47;0.47;;;18.00;78.80;;;;;;5091152;28;20036;-75
2022/06/25 00:16:15;;;;;;;0.40;0.40;;;18.00;78.90;;;;;;5073281;28;20051;-75
2022/06/25 00:18:41;;;;;;;0.55;0.50;;;18.00;78.90;;;;;;5091683;28;20047;-75
2022/06/25 00:21:06;;;;;;;0.80;0.68;;;18.10;78.90;;;;;;5091722;28;20047;-75
2022/06/25 00:23:32;;;;;;;0.55;0.55;;;18.10;78.80;;;;;;5073163;28;20044;-76
2022/06/25 00:25:58;;;;;;;0.47;0.47;;;18.20;78.70;;;;;;5073036;28;20051;-75
2022/06/25 00:28:23;;;;;;;0.50;0.50;;;18.30;78.60;;;;;;5073578;28;20044;-75
2022/06/25 00:30:49;;;;;;;0.45;0.45;;;18.30;78.30;;;;;;5094731;28;20467;-75
2022/06/25 00:33:14;;;;;;;1.15;0.60;;;18.30;78.20;;;;;;5094678;28;20044;-75
2022/06/25 00:35:40;;;;;;;0.57;0.57;;;18.40;78.20;;;;;;5095174;28;20040;-76
2022/06/25 00:38:06;;;;;;;0.57;0.57;;;18.40;78.20;;;;;;5095167;28;20040;-75
2022/06/25 00:40:32;;;;;;;0.47;0.47;;;18.30;78.10;;;;;;5094574;28;20124;-76
2022/06/25 00:42:58;;;;;;;0.65;0.65;;;18.30;78.10;;;;;;5043156;28;20039;-75
2022/06/25 00:45:23;;;;;;;1.23;0.63;;;18.40;78.10;;;;;;5094862;28;20059;-76
2022/06/25 00:47:49;;;;;;;0.75;0.60;;;18.50;78.10;;;;;;5076209;28;20075;-75
2022/06/25 00:50:15;;;;;;;0.40;0.40;;;18.50;78.10;;;;;;5076084;28;20432;-76
2022/06/25 00:52:42;;;;;;;1.35;0.55;;;18.50;78.10;;;;;;5059342;28;20486;-75
2022/06/25 00:55:11;;;;;;;0.50;0.50;;;18.50;78.20;;;;;;5095156;28;20040;-75
2022/06/25 00:57:39;;;;;;;1.25;0.65;;;18.50;78.10;;;;;;5094719;28;20048;-75
2022/06/25 01:00:08;;;;;;;0.82;0.52;;;18.50;78.20;;;;;;5094638;28;20391;-76
2022/06/25 01:02:35;;;;;;;0.60;0.60;;;18.50;78.20;;;;;;5094670;28;20051;-74
2022/06/25 01:05:05;;;;;;;0.50;0.50;;;18.50;78.20;;;;;;5094124;28;20043;-75
2022/06/25 01:07:32;;;;;;;0.60;0.52;;;18.50;78.20;;;;;;5093970;28;20494;-74
2022/06/25 01:09:58;;;;;;;0.52;0.43;;;18.50;78.10;;;;;;5094725;28;20051;-75
2022/06/25 01:12:23;;;;;;;0.98;0.68;;;18.50;78.20;;;;;;5094341;28;20401;-76
2022/06/25 01:15:03;;;;;;;0.50;0.50;;;18.50;78.20;;;;;;5094197;28;20406;-75
2022/06/25 01:17:29;;;;;;;0.77;0.60;;;18.50;78.30;;;;;;5092551;28;20068;-76
2022/06/25 01:19:55;;;;;;;0.60;0.60;;;18.50;78.20;;;;;;5075720;28;20502;-75
2022/06/25 01:22:21;;;;;;;0.75;0.60;;;18.50;78.20;;;;;;5093975;28;20062;-77
2022/06/25 01:24:47;;;;;;;0.50;0.50;;;18.50;78.20;;;;;;5075404;28;20093;-75
2022/06/25 01:27:16;;;;;;;0.77;0.70;;;18.50;78.20;;;;;;5094256;28;20443;-77
2022/06/25 01:29:42;;;;;;;0.57;0.57;;;18.50;78.30;;;;;;5075873;28;20072;-74
2022/06/25 01:32:10;;;;;;;0.35;0.35;;;18.50;78.40;;;;;;5093625;28;20075;-76
2022/06/25 01:34:36;;;;;;;0.80;0.70;;;18.40;78.40;;;;;;5093537;28;20036;-75
2022/06/25 01:37:02;;;;;;;0.50;0.50;;;18.40;78.40;;;;;;5076014;28;20539;-76
2022/06/25 01:39:28;;;;;;;0.60;0.60;;;18.40;79.10;;;;;;5075574;28;20565;-75
2022/06/25 01:41:54;;;;;;;0.95;0.50;;;18.40;78.50;;;;;;5075607;28;20127;-75
2022/06/25 01:44:20;;;;;;;0.50;0.50;;;18.40;78.60;;;;;;5075255;28;20043;-76
2022/06/25 01:46:45;;;;;;;0.60;0.60;;;18.50;78.70;;;;;;5093326;28;20040;-75
2022/06/25 01:49:11;;;;;;;0.60;0.60;;;18.40;78.70;;;;;;5075158;28;20052;-75
2022/06/25 01:51:37;;;;;;;0.63;0.63;;;18.30;78.70;;;;;;5093280;28;20046;-75
2022/06/25 01:54:03;;;;;;;0.60;0.60;;;18.30;78.80;;;;;;5093358;28;20097;-74
2022/06/25 01:56:28;;;;;;;0.50;0.50;;;18.30;78.90;;;;;;5058421;28;20040;-75
2022/06/25 01:58:54;;;;;;;0.57;0.50;;;18.30;78.90;;;;;;5093658;28;20036;-75
2022/06/25 02:01:20;;;;;;;0.75;0.70;;;18.20;78.90;;;;;;5093184;28;20036;-75
2022/06/25 02:03:45;;;;;;;0.63;0.63;;;18.20;79.00;;;;;;5093199;28;20117;-75
2022/06/25 02:06:11;;;;;;;0.50;0.50;;;18.20;79.00;;;;;;5075337;28;20052;-75
2022/06/25 02:08:38;;;;;;;0.60;0.60;;;18.20;79.10;;;;;;5093256;28;20172;-75
2022/06/25 02:11:06;;;;;;;0.50;0.50;;;18.20;79.10;;;;;;5074987;28;20493;-75
2022/06/25 02:13:33;;;;;;;0.55;0.55;;;18.10;79.20;;;;;;5073281;28;20036;-75
2022/06/25 02:16:00;;;;;;;0.52;0.52;;;18.10;79.20;;;;;;5092775;28;20456;-76
2022/06/25 02:18:27;;;;;;;0.77;0.70;;;18.10;79.30;;;;;;5093161;28;20051;-75
2022/06/25 02:20:53;;;;;;;0.68;0.60;;;18.10;79.30;;;;;;5074760;28;20035;-75
2022/06/25 02:23:20;;;;;;;0.40;0.40;;;18.10;79.40;;;;;;5074990;28;20040;-75
2022/06/25 02:25:47;;;;;;;0.63;0.60;;;18.10;79.50;;;;;;5092715;28;20032;-75
2022/06/25 02:28:16;;;;;;;0.43;0.43;;;18.10;79.50;;;;;;5092727;28;20467;-75
2022/06/25 02:30:42;;;;;;;0.30;0.30;;;18.00;79.50;;;;;;5093467;28;20036;-75
2022/06/25 02:33:11;;;;;;;0.68;0.68;;;18.00;79.60;;;;;;5093273;28;20081;-75
2022/06/25 02:35:39;;;;;;;0.50;0.50;;;18.00;79.70;;;;;;5073521;28;20044;-76
2022/06/25 02:38:05;;;;;;;0.70;0.50;;;17.90;79.70;;;;;;5091439;28;20040;-75
2022/06/25 02:40:31;;;;;;;0.35;0.35;;;17.90;79.70;;;;;;5057810;28;20054;-76
2022/06/25 02:42:56;;;;;;;0.40;0.40;;;17.90;79.80;;;;;;5092654;28;20043;-75
2022/06/25 02:45:22;;;;;;;0.50;0.50;;;17.90;80.00;;;;;;5093010;28;20469;-75
2022/06/25 02:47:48;;;;;;;0.63;0.57;;;17.80;80.00;;;;;;5092356;28;20040;-75
2022/06/25 02:50:14;;;;;;;0.50;0.50;;;17.80;80.00;;;;;;5092485;28;20068;-75
2022/06/25 02:52:40;;;;;;;0.50;0.50;;;17.80;80.10;;;;;;5073651;28;20068;-75
2022/06/25 02:55:06;;;;;;;0.40;0.40;;;17.80;80.10;;;;;;5093007;28;20032;-75
2022/06/25 03:00:13;;;;;;;0.50;0.50;;;17.70;80.10;;;;;;5076505;28;20071;-76
2022/06/25 03:02:39;;;;;;;0.50;0.50;;;17.70;80.00;;;;;;5090551;28;20081;-75
2022/06/25 03:05:05;;;;;;;0.70;0.60;;;17.70;80.00;;;;;;5092260;28;20044;-75
2022/06/25 03:07:31;;;;;;;0.93;0.60;;;17.80;80.00;;;;;;5073867;28;20432;-75
2022/06/25 03:09:57;;;;;;;0.40;0.40;;;17.80;80.00;;;;;;5074344;28;20020;-75
2022/06/25 03:12:22;;;;;;;0.45;0.40;;;17.70;80.00;;;;;;5092023;28;20032;-75
2022/06/25 03:14:48;;;;;;;1.05;0.63;;;17.70;80.00;;;;;;5074431;28;20498;-75
2022/06/25 03:17:14;;;;;;;1.02;0.40;;;17.70;80.00;;;;;;5092091;28;20051;-75
2022/06/25 03:19:39;;;;;;;0.40;0.40;;;17.70;80.00;;;;;;5073959;28;20044;-75
2022/06/25 03:22:05;;;;;;;0.47;0.47;;;17.70;80.10;;;;;;5091946;28;20044;-75
2022/06/25 03:24:31;;;;;;;0.65;0.55;;;17.60;80.10;;;;;;5091954;28;20052;-74
2022/06/25 03:26:56;;;;;;;0.63;0.50;;;17.60;80.10;;;;;;5074486;28;20474;-75
2022/06/25 03:29:22;;;;;;;0.50;0.50;;;17.60;80.20;;;;;;5073948;28;20397;-75
2022/06/25 03:31:48;;;;;;;0.50;0.50;;;17.60;80.20;;;;;;5073557;28;20044;-74
2022/06/25 03:34:14;;;;;;;0.85;0.40;;;17.60;80.20;;;;;;5092411;28;20051;-74
2022/06/25 03:36:39;;;;;;;0.70;0.50;;;17.60;80.20;;;;;;5074313;28;20044;-73
2022/06/25 03:39:05;;;;;;;0.57;0.57;;;17.60;80.20;;;;;;5073733;28;20048;-74
2022/06/25 03:41:32;;;;;;;0.40;0.40;;;17.60;80.10;;;;;;5091736;28;20068;-74
2022/06/25 03:43:59;;;;;;;0.40;0.40;;;17.50;80.10;;;;;;5073429;28;20139;-74
2022/06/25 03:46:25;;;;;;;0.40;0.40;;;17.60;80.10;;;;;;5073666;28;20397;-74
2022/06/25 03:48:51;;;;;;;0.43;0.43;;;17.70;80.20;;;;;;5091444;28;20062;-75
2022/06/25 03:51:17;;;;;;;0.47;0.40;;;17.60;80.10;;;;;;5073510;28;20036;-75
2022/06/25 03:53:43;;;;;;;0.30;0.30;;;17.60;80.10;;;;;;5091613;28;20044;-75
2022/06/25 03:56:09;;;;;;;0.30;0.30;;;17.60;80.10;;;;;;5091725;28;20089;-75
2022/06/25 03:58:34;;;;;;;1.30;0.50;;;17.60;80.10;;;;;;5091614;28;20046;-74
2022/06/25 04:01:00;;;;;;;0.40;0.40;;;17.60;80.10;;;;;;5073509;28;20040;-75
2022/06/25 04:03:26;;;;;;;0.40;0.40;;;17.60;80.10;;;;;;5057672;28;20439;-74
2022/06/25 04:05:51;;;;;;;0.32;0.30;;;17.60;80.50;;;;;;5077187;28;20040;-74
2022/06/25 04:08:17;;;;;;;0.63;0.40;;;17.60;80.20;;;;;;5095849;28;20127;-74
2022/06/25 04:10:44;;;;;;;0.65;0.40;;;17.50;80.10;;;;;;5095589;28;20040;-75
2022/06/25 04:13:10;;;;;;;0.40;0.40;;;17.50;80.10;;;;;;5095736;28;20379;-74
2022/06/25 04:15:36;;;;;;;0.43;0.43;;;17.50;80.20;;;;;;5095780;28;20043;-75
2022/06/25 04:18:04;;;;;;;0.32;0.32;;;17.50;80.30;;;;;;5095063;28;20131;-75
2022/06/25 04:20:30;;;;;;;0.40;0.40;;;17.50;80.30;;;;;;5095739;28;20042;-75
2022/06/25 04:22:56;;;;;;;0.38;0.38;;;17.40;80.30;;;;;;5094914;28;20036;-75
2022/06/25 04:25:22;;;;;;;0.47;0.47;;;17.50;80.30;;;;;;5095608;28;20036;-74
2022/06/25 04:30:26;;;;;;;0.40;0.40;;;17.50;80.40;;;;;;5078583;28;20040;-75
2022/06/25 04:32:51;;;;;;;0.40;0.40;;;17.40;80.40;;;;;;5077029;28;20397;-75
2022/06/25 04:35:17;;;;;;;0.60;0.60;;;17.50;80.50;;;;;;5060011;28;20044;-74
2022/06/25 04:37:43;;;;;;;0.38;0.38;;;17.40;80.40;;;;;;5094617;28;20048;-75
2022/06/25 04:40:09;;;;;;;0.50;0.50;;;17.50;80.40;;;;;;5094646;28;20036;-75
2022/06/25 04:42:35;;;;;;;0.55;0.40;;;17.50;80.40;;;;;;5074691;28;20490;-75
2022/06/25 04:45:01;;;;;;;0.50;0.38;;;17.50;80.30;;;;;;5059719;28;20131;-74
2022/06/25 04:47:26;;;;;;;0.50;0.50;;;17.50;80.30;;;;;;5094853;28;20036;-75
2022/06/25 04:49:52;;;;;;;0.35;0.35;;;17.50;80.30;;;;;;5094650;28;20494;-74
2022/06/25 04:52:18;;;;;;;0.75;0.50;;;17.60;80.30;;;;;;5077289;28;20032;-74
2022/06/25 04:54:44;;;;;;;0.40;0.40;;;17.60;80.20;;;;;;5094249;28;20032;-75
2022/06/25 04:57:09;;;;;;;1.05;0.60;;;17.70;80.20;;;;;;5094710;28;20036;-74
2022/06/25 04:59:35;;;;;;;0.70;0.70;;;17.80;80.00;;;;;;5094437;28;20032;-75
2022/06/25 05:02:01;;;;;;;1.30;0.77;;;17.80;79.90;;;;;;5076355;28;20036;-75
2022/06/25 05:04:27;;;;;;;0.90;0.77;;;17.90;79.70;;;;;;5076297;28;20047;-75
2022/06/25 05:06:53;;;;;;;0.63;0.50;;;17.90;79.50;;;;;;5076720;28;20046;-74
2022/06/25 05:09:19;;;;;;;0.68;0.60;;;18.10;79.30;;;;;;5094024;28;20134;-75
2022/06/25 05:11:45;;;;;;;0.35;0.35;;;18.20;79.10;;;;;;5076554;28;20044;-75
2022/06/25 05:14:11;;;;;;;1.30;0.73;;;18.30;78.90;;;;;;5093833;28;20042;-75
2022/06/25 05:16:37;;;;;;;1.02;0.60;;;18.40;78.70;;;;;;5076062;28;20040;-75
2022/06/25 05:19:02;;;;;;;0.50;0.50;;;18.50;78.60;;;;;;5094031;28;20047;-75
2022/06/25 05:21:28;;;;;;;1.38;0.85;;;18.50;78.40;;;;;;5076064;28;20505;-75
2022/06/25 05:23:54;;;;;;;1.20;0.98;;;18.60;78.30;;;;;;5059009;28;20048;-75
2022/06/25 05:26:22;;;;;;;0.70;0.70;;;18.70;78.20;;;;;;5093745;28;20051;-75
2022/06/25 05:28:48;;;;;;;1.23;0.88;;;18.80;78.20;;;;;;5093965;28;20032;-74
2022/06/25 05:31:13;;;;;;;1.00;0.90;;;18.90;78.10;;;;;;5075875;28;20486;-75
2022/06/25 05:33:39;;;;;;;0.70;0.68;;;19.00;77.90;;;;;;5075599;28;20051;-75
2022/06/25 05:36:05;;;;;;;0.75;0.75;;;19.10;77.80;;;;;;5075720;28;20051;-75
2022/06/25 05:38:31;;;;;;;0.70;0.70;;;19.20;77.60;;;;;;5093822;28;20039;-76
2022/06/25 05:40:57;;;;;;;1.08;0.68;;;19.20;77.40;;;;;;5059044;28;20407;-75
2022/06/25 05:43:23;;;;;;;0.80;0.80;;;19.30;77.40;;;;;;5075888;28;20040;-74
2022/06/25 05:45:49;;;;;;;0.82;0.73;;;19.30;77.40;;;;;;5094329;28;20051;-74
2022/06/25 05:48:14;;;;;;;2.15;0.80;;;19.30;77.50;;;;;;5094138;28;20089;-75
2022/06/25 05:50:40;;;;;;;0.73;0.70;;;19.30;77.60;;;;;;5093694;28;20044;-75
2022/06/25 05:53:06;;;;;;;0.75;0.60;;;19.30;77.90;;;;;;5075888;28;20032;-74
2022/06/25 05:55:32;;;;;;;0.70;0.70;;;19.30;77.90;;;;;;5094268;28;20048;-74
2022/06/25 05:57:58;;;;;;;0.80;0.80;;;19.30;77.90;;;;;;5093603;28;20044;-75
2022/06/25 06:00:26;;;;;;;1.00;0.75;;;19.30;77.90;;;;;;5093674;28;20062;-75
2022/06/25 06:02:51;;;;;;;0.85;0.60;;;19.40;77.90;;;;;;5075444;28;20046;-74
2022/06/25 06:05:17;;;;;;;0.70;0.70;;;19.50;78.00;;;;;;5075214;28;20048;-75
2022/06/25 06:07:43;;;;;;;1.05;0.90;;;19.40;77.90;;;;;;5093501;28;20092;-75
2022/06/25 06:10:09;;;;;;;0.80;0.80;;;19.50;77.90;;;;;;5093731;28;20127;-74
2022/06/25 06:12:35;;;;;;;0.88;0.80;;;19.50;77.80;;;;;;5076012;28;20513;-75
2022/06/25 06:15:01;;;;;;;1.27;0.80;;;19.50;77.70;;;;;;5058603;28;20032;-74
2022/06/25 06:17:27;;;;;;;0.65;0.65;;;19.50;77.60;;;;;;5093869;28;20386;-74
2022/06/25 06:19:52;;;;;;;1.38;0.82;;;19.60;77.60;;;;;;5075149;28;20047;-74
2022/06/25 06:22:18;;;;;;;0.68;0.68;;;19.70;77.50;;;;;;5059040;28;20494;-75
2022/06/25 06:24:44;;;;;;;0.75;0.70;;;19.80;77.30;;;;;;5075088;28;20051;-74
2022/06/25 06:27:10;;;;;;;0.57;0.57;;;19.80;77.10;;;;;;5057367;28;20448;-74
2022/06/25 06:29:35;;;;;;;0.70;0.70;;;19.90;77.00;;;;;;5093687;28;20066;-74
2022/06/25 06:32:01;;;;;;;1.15;0.80;;;19.90;77.00;;;;;;5093449;28;20393;-74
2022/06/25 06:34:27;;;;;;;0.50;0.50;;;20.00;76.90;;;;;;5074706;28;20043;-74
2022/06/25 06:36:53;;;;;;;0.93;0.73;;;20.10;76.70;;;;;;5092810;28;20127;-74
2022/06/25 06:39:18;;;;;;;0.55;0.55;;;20.20;76.60;;;;;;5092822;28;20105;-75
2022/06/25 06:41:44;;;;;;;0.73;0.73;;;20.30;76.40;;;;;;5092839;28;20047;-75
2022/06/25 06:44:10;;;;;;;2.45;0.90;;;20.30;76.00;;;;;;5058168;28;20047;-75
2022/06/25 06:46:35;;;;;;;1.27;0.93;;;20.30;75.90;;;;;;5092853;28;20490;-75
2022/06/25 06:49:01;;;;;;;1.15;0.88;;;20.40;76.00;;;;;;5092806;28;20032;-74
2022/06/25 06:51:27;;;;;;;1.00;0.80;;;20.40;76.00;;;;;;5092729;28;20036;-75
2022/06/25 06:53:52;;;;;;;1.45;0.80;;;20.50;75.90;;;;;;5074655;28;20495;-74
2022/06/25 06:56:18;;;;;;;0.93;0.80;;;20.50;75.80;;;;;;5092824;28;20132;-75
2022/06/25 06:58:44;;;;;;;1.15;0.60;;;20.60;75.70;;;;;;5092533;28;20040;-75
2022/06/25 07:01:09;;;;;;;1.02;0.93;;;20.70;75.60;;;;;;5092492;28;20067;-74
2022/06/25 07:03:35;;;;;;;0.90;0.80;;;20.80;75.40;;;;;;5092595;28;20047;-75
2022/06/25 07:06:01;;;;;;;0.70;0.70;;;20.90;75.30;;;;;;5073924;28;20055;-76
2022/06/25 07:08:27;;;;;;;0.88;0.75;;;20.90;75.20;;;;;;5074631;28;20044;-77
2022/06/25 07:10:52;;;;;;;0.73;0.73;;;20.90;75.20;;;;;;5057826;28;20131;-76
2022/06/25 07:13:18;;;;;;;0.70;0.70;;;21.00;75.20;;;;;;5092670;28;20036;-78
2022/06/25 07:15:44;;;;;;;0.68;0.60;;;21.10;75.10;;;;;;5092494;28;20097;-78
2022/06/25 07:18:10;;;;;;;2.80;0.70;;;21.20;75.10;;;;;;5092741;28;20035;-79
2022/06/25 07:20:35;;;;;;;1.38;0.60;;;21.30;75.00;;;;;;5056258;28;20036;-79
2022/06/25 07:23:01;;;;;;;0.80;0.80;;;21.50;74.60;;;;;;5057700;28;20036;-76
2022/06/25 07:25:27;;;;;;;0.60;0.60;;;21.60;74.50;;;;;;5092171;28;20070;-76
2022/06/25 07:27:53;;;;;;;0.95;0.80;;;21.60;74.50;;;;;;5092242;28;20044;-76
2022/06/25 07:30:19;;;;;;;1.10;0.70;;;21.70;74.40;;;;;;5092269;28;20104;-76
2022/06/25 07:32:44;;;;;;;1.13;0.70;;;21.80;74.10;;;;;;5092727;28;20351;-77
2022/06/25 07:35:10;;;;;;;0.50;0.50;;;21.80;74.20;;;;;;5092382;28;20588;-76
2022/06/25 07:37:36;;;;;;;1.48;0.57;;;21.90;74.40;;;;;;5075245;28;20546;-76
2022/06/25 07:40:03;;;;;;;0.80;0.80;;;22.00;74.10;;;;;;5078041;28;20109;-75
2022/06/25 07:42:30;;;;;;;0.70;0.63;;;22.10;74.10;;;;;;5095653;28;20086;-75
2022/06/25 07:44:56;;;;;;;0.70;0.70;;;22.20;74.20;;;;;;5095709;28;20040;-76
2022/06/25 07:47:22;;;;;;;0.63;0.60;;;22.40;73.90;;;;;;5077450;28;20105;-76
2022/06/25 07:52:31;;;;;;;0.70;0.70;;;22.60;73.40;;;;;;5080363;28;20127;-74
2022/06/25 07:54:57;;;;;;;0.70;0.68;;;22.70;73.20;;;;;;5095711;28;20074;-76
2022/06/25 07:57:22;;;;;;;0.50;0.50;;;23.00;73.00;;;;;;5077228;28;20139;-75
2022/06/25 07:59:48;;;;;;;0.50;0.50;;;23.00;72.60;;;;;;5095323;28;20150;-75
2022/06/25 08:02:14;;;;;;;0.73;0.60;;;23.10;72.60;;;;;;5095732;28;20036;-75
2022/06/25 08:04:39;;;;;;;0.52;0.52;;;23.00;72.50;;;;;;5095834;28;20096;-75
2022/06/25 08:07:05;;;;;;;0.52;0.52;;;23.10;72.50;;;;;;5095263;28;20104;-75
2022/06/25 08:09:31;;;;;;;0.50;0.50;;;23.10;72.70;;;;;;5095196;28;20047;-75
2022/06/25 08:11:57;;;;;;;1.48;0.45;;;23.00;73.10;;;;;;5060316;28;20047;-75
2022/06/25 08:14:23;;;;;;;0.50;0.50;;;23.10;73.10;;;;;;5095245;28;20032;-74
2022/06/25 08:16:49;;;;;;;0.52;0.50;;;23.30;72.90;;;;;;5094761;28;20093;-74
2022/06/25 08:19:14;;;;;;;0.70;0.65;;;23.20;72.60;;;;;;5095423;28;20126;-75
2022/06/25 08:21:40;;;;;;;0.40;0.40;;;23.40;72.50;;;;;;5095115;28;20051;-75
2022/06/25 08:24:06;;;;;;;0.73;0.52;;;23.40;72.40;;;;;;5060082;28;20074;-75
2022/06/25 08:26:32;;;;;;;0.68;0.50;;;23.40;72.60;;;;;;5094963;28;20032;-74
2022/06/25 08:28:59;;;;;;;0.93;0.50;;;23.50;72.60;;;;;;5077051;28;20036;-75
2022/06/25 08:31:25;;;;;;;0.40;0.40;;;23.50;72.30;;;;;;5076831;28;20047;-74
2022/06/25 08:33:50;;;;;;;0.75;0.50;;;23.40;72.50;;;;;;5077455;28;20028;-75
2022/06/25 08:36:16;;;;;;;0.52;0.52;;;23.40;72.50;;;;;;5095075;28;20039;-75
2022/06/25 08:38:42;;;;;;;0.75;0.70;;;23.30;72.60;;;;;;5076625;28;20048;-75
2022/06/25 08:41:08;;;;;;;1.05;0.60;;;23.30;72.80;;;;;;5077075;28;20481;-75
2022/06/25 08:43:34;;;;;;;0.57;0.57;;;23.30;72.70;;;;;;5094547;28;20478;-74
2022/06/25 08:46:00;;;;;;;0.60;0.60;;;23.40;72.60;;;;;;5076839;28;20047;-74
2022/06/25 08:48:32;;;;;;;0.40;0.40;;;23.50;72.50;;;;;;5076491;28;20036;-74
2022/06/25 08:50:59;;;;;;;0.43;0.40;;;23.70;71.90;;;;;;5076645;28;20455;-74
2022/06/25 08:53:30;;;;;;;0.40;0.40;;;23.80;71.70;;;;;;5095184;28;20050;-75
2022/06/25 08:55:56;;;;;;;0.40;0.40;;;23.80;71.40;;;;;;5077243;28;20040;-75
2022/06/25 08:58:22;;;;;;;0.50;0.50;;;23.60;71.90;;;;;;5095085;28;20413;-75
2022/06/25 09:00:48;;;;;;;0.50;0.50;;;23.60;72.10;;;;;;5095103;28;20127;-74
2022/06/25 09:03:14;;;;;;;0.50;0.50;;;23.60;72.20;;;;;;5094708;28;20040;-75
2022/06/25 09:05:42;;;;;;;0.50;0.50;;;23.60;72.30;;;;;;5094954;28;20457;-75
2022/06/25 09:08:10;;;;;;;0.50;0.50;;;23.50;72.10;;;;;;5094763;28;20119;-75
2022/06/25 09:10:37;;;;;;;0.50;0.50;;;23.30;72.20;;;;;;5076197;28;20121;-75
2022/06/25 09:13:07;;;;;;;0.50;0.50;;;23.10;72.30;;;;;;5094757;28;20178;-74
2022/06/25 09:15:39;;;;;;;0.50;0.50;;;23.00;72.80;;;;;;5094321;28;20035;-74
2022/06/25 09:18:08;;;;;;;0.40;0.40;;;23.00;72.90;;;;;;5076852;28;20055;-75
2022/06/25 09:20:34;;;;;;;0.43;0.43;;;22.90;72.90;;;;;;5094562;28;20044;-74
2022/06/25 09:23:03;;;;;;;0.30;0.30;;;22.90;72.90;;;;;;5094328;28;20067;-75
2022/06/25 09:25:34;;;;;;;0.50;0.50;;;22.80;72.90;;;;;;5093825;28;20040;-74
2022/06/25 09:28:01;;;;;;;0.40;0.40;;;22.80;73.00;;;;;;5094682;28;20040;-74
2022/06/25 09:30:29;;;;;;;0.75;0.50;;;22.70;73.00;;;;;;5094244;28;20035;-75
2022/06/25 09:32:57;;;;;;;0.50;0.50;;;22.60;73.00;;;;;;5094480;28;20047;-75
2022/06/25 09:35:42;;;;;;;0.55;0.55;;;22.60;73.00;;;;;;5093974;28;20051;-74
2022/06/25 09:38:10;;;;;;;0.45;0.45;;;22.50;73.10;;;;;;5092352;28;20036;-74
2022/06/25 09:40:38;;;;;;;0.30;0.30;;;22.40;73.20;;;;;;5075602;28;20048;-74
2022/06/25 09:43:22;;;;;;;0.63;0.57;;;22.40;73.10;;;;;;5093808;28;20190;-74
2022/06/25 09:45:50;;;;;;;0.73;0.47;;;22.30;73.00;;;;;;5075994;28;20040;-74
2022/06/25 09:48:19;;;;;;;0.68;0.47;;;22.30;73.10;;;;;;5075992;28;20043;-74
2022/06/25 09:51:12;;;;;;;0.50;0.50;;;22.30;73.10;;;;;;5094192;28;20028;-74
2022/06/25 09:53:54;;;;;;;0.47;0.40;;;22.20;73.20;;;;;;5091883;28;20127;-74
2022/06/25 09:56:23;;;;;;;0.45;0.32;;;22.20;73.10;;;;;;5075428;28;20075;-74
2022/06/25 09:58:50;;;;;;;0.45;0.45;;;22.20;73.10;;;;;;5076753;28;20044;-75
2022/06/25 10:01:18;;;;;;;0.85;0.50;;;22.10;73.10;;;;;;5076209;28;20040;-74
2022/06/25 10:03:46;;;;;;;0.43;0.43;;;22.10;73.10;;;;;;5075923;28;20541;-74
2022/06/25 10:06:17;;;;;;;0.40;0.40;;;22.10;72.90;;;;;;5093855;28;20044;-74
2022/06/25 10:08:49;;;;;;;0.50;0.50;;;22.20;72.70;;;;;;5075156;28;20048;-74
2022/06/25 10:11:17;;;;;;;0.43;0.43;;;22.30;72.60;;;;;;5075282;28;20058;-74
2022/06/25 10:13:43;;;;;;;0.52;0.52;;;22.40;72.10;;;;;;5075839;28;20069;-74
2022/06/25 10:16:09;;;;;;;0.40;0.40;;;22.40;71.90;;;;;;5093580;28;20067;-74
2022/06/25 10:18:36;;;;;;;0.57;0.55;;;22.40;71.90;;;;;;5093175;28;20536;-75
2022/06/25 10:21:02;;;;;;;0.50;0.50;;;22.40;71.90;;;;;;5093135;28;20490;-74
2022/06/25 10:23:29;;;;;;;0.50;0.50;;;22.40;72.00;;;;;;5093501;28;20043;-74
2022/06/25 10:25:55;;;;;;;0.60;0.60;;;22.40;71.80;;;;;;5074831;28;20040;-74
2022/06/25 10:28:26;;;;;;;0.40;0.40;;;22.40;71.70;;;;;;5075054;28;20109;-73
2022/06/25 10:30:56;;;;;;;0.40;0.40;;;22.60;71.40;;;;;;5092908;28;20032;-74
2022/06/25 10:33:24;;;;;;;0.40;0.40;;;22.70;71.00;;;;;;5093031;28;20036;-73
2022/06/25 10:35:51;;;;;;;0.52;0.52;;;22.70;70.80;;;;;;5092735;28;20039;-72
2022/06/25 10:38:22;;;;;;;0.70;0.50;;;22.70;70.80;;;;;;5092943;28;20036;-72
2022/06/25 10:43:51;;;;;;;0.40;0.40;;;22.70;71.20;;;;;;5091745;28;20047;-72
2022/06/25 10:46:36;;;;;;;0.45;0.45;;;22.50;71.50;;;;;;5093029;28;20090;-73
2022/06/25 10:49:11;;;;;;;1.58;0.40;;;22.40;71.60;;;;;;5092683;28;20119;-71
2022/06/25 10:51:42;;;;;;;0.40;0.40;;;22.30;71.80;;;;;;5092706;28;20515;-72
2022/06/25 10:54:37;;;;;;;0.50;0.50;;;22.30;72.00;;;;;;5057669;28;20132;-72
2022/06/25 10:57:04;;;;;;;0.43;0.43;;;22.30;72.10;;;;;;5078890;28;20094;-73
2022/06/25 10:59:46;;;;;;;0.70;0.43;;;22.30;72.10;;;;;;5093105;28;20072;-71
2022/06/25 11:02:14;;;;;;;0.40;0.40;;;22.20;72.00;;;;;;5092895;28;20054;-71
2022/06/25 11:04:48;;;;;;;0.40;0.40;;;22.30;72.00;;;;;;5092534;28;20048;-71
2022/06/25 11:07:17;;;;;;;0.50;0.50;;;22.40;71.80;;;;;;5091062;28;20044;-72
2022/06/25 11:09:57;;;;;;;0.40;0.40;;;22.40;71.70;;;;;;5092292;28;20044;-72
2022/06/25 11:12:24;;;;;;;0.40;0.40;;;22.40;71.70;;;;;;5092465;28;20036;-71
2022/06/25 11:14:59;;;;;;;1.02;0.40;;;22.30;71.80;;;;;;5092298;28;20028;-72
2022/06/25 11:17:25;;;;;;;0.45;0.45;;;22.20;71.90;;;;;;5092201;28;20071;-73
2022/06/25 11:19:51;;;;;;;0.40;0.40;;;22.30;72.00;;;;;;5092790;28;20470;-71
2022/06/25 11:22:17;;;;;;;0.60;0.50;;;22.30;72.00;;;;;;5092188;28;20040;-72
2022/06/25 11:30:05;;;;;;;0.63;0.50;;;22.50;71.60;;;;;;5090272;28;20044;-72
2022/06/25 11:32:31;;;;;;;0.40;0.40;;;22.50;71.50;;;;;;5092268;28;20044;-72
2022/06/25 11:35:00;;;;;;;0.90;0.50;;;22.60;71.30;;;;;;5092088;28;20044;-73
2022/06/25 11:37:26;;;;;;;0.65;0.50;;;22.60;71.10;;;;;;5073869;28;20074;-71
2022/06/25 11:39:52;;;;;;;0.35;0.35;;;22.70;71.00;;;;;;5073840;28;20040;-72
2022/06/25 11:42:19;;;;;;;0.30;0.30;;;23.00;70.80;;;;;;5092048;28;20086;-72
2022/06/25 11:44:49;;;;;;;0.57;0.43;;;23.30;70.30;;;;;;5092222;28;20453;-72
2022/06/25 11:47:20;;;;;;;0.40;0.40;;;23.50;69.60;;;;;;5092110;28;20048;-73
2022/06/25 11:49:46;;;;;;;;;;;23.60;70.00;;;;;;5074949;28;20036;-72
2022/06/25 11:52:14;;;;;;;1.63;0.50;;;23.80;69.10;;;;;;5092115;28;19923;-72
2022/06/25 11:54:42;;;;;;;0.50;0.50;;;23.90;69.00;;;;;;5092400;28;20067;-71
2022/06/25 11:57:10;;;;;;;1.10;0.65;;;24.00;68.70;;;;;;5073811;28;20510;-71
2022/06/25 11:59:38;;;;;;;0.52;0.50;;;24.20;68.60;;;;;;5090150;28;20509;-72
2022/06/25 12:02:06;;;;;;;0.40;0.40;;;24.20;68.60;;;;;;5092501;28;20048;-72
2022/06/25 12:04:49;;;;;;;0.40;0.40;;;24.40;68.60;;;;;;5091852;28;20123;-71
2022/06/25 12:07:18;;;;;;;0.30;0.30;;;24.60;67.90;;;;;;5091092;28;20488;-72
2022/06/25 12:09:44;;;;;;;0.60;0.60;;;24.60;68.10;;;;;;5091784;28;20397;-72
2022/06/25 12:12:10;;;;;;;0.88;0.60;;;24.50;68.80;;;;;;5092211;28;20036;-71
2022/06/25 12:14:36;;;;;;;0.50;0.50;;;24.50;68.30;;;;;;5092100;28;20486;-72
2022/06/25 12:17:05;;;;;;;0.60;0.60;;;24.30;68.50;;;;;;5092222;28;20044;-73
2022/06/25 12:19:52;;;;;;;0.43;0.43;;;24.30;68.90;;;;;;5073900;28;20044;-72
2022/06/25 12:22:27;;;;;;;1.17;0.65;;;24.10;69.20;;;;;;5091415;28;20047;-72
2022/06/25 12:24:57;;;;;;;1.30;0.43;;;24.00;69.40;;;;;;5092758;28;20040;-71
2022/06/25 12:27:25;;;;;;;0.50;0.50;;;24.00;69.60;;;;;;5095205;28;20044;-71
2022/06/25 12:29:53;;;;;;;0.90;0.50;;;24.10;69.80;;;;;;5095009;28;20040;-72
2022/06/25 12:32:19;;;;;;;0.68;0.60;;;24.10;69.80;;;;;;5095125;28;20039;-71
2022/06/25 12:34:50;;;;;;;0.90;0.50;;;24.10;69.80;;;;;;5095051;28;20047;-72
2022/06/25 12:37:31;;;;;;;;;;;24.20;69.60;;;;;;5095348;28;20485;-72
2022/06/25 12:39:58;;;;;;;0.40;0.40;;;24.10;69.60;;;;;;5093566;28;19911;-71
2022/06/25 12:42:25;;;;;;;0.40;0.40;;;24.20;69.70;;;;;;5093011;28;20048;-72
2022/06/25 12:44:50;;;;;;;0.40;0.40;;;24.30;69.60;;;;;;5094661;28;20044;-72
2022/06/25 12:47:17;;;;;;;0.40;0.40;;;24.30;69.50;;;;;;5094939;28;20042;-72
2022/06/25 12:49:58;;;;;;;0.35;0.35;;;24.50;69.30;;;;;;5095162;28;20093;-72
2022/06/25 12:52:35;;;;;;;0.75;0.40;;;24.70;68.80;;;;;;5076584;28;20032;-72
2022/06/25 12:55:00;;;;;;;0.40;0.40;;;24.70;68.40;;;;;;5094464;28;20052;-72
2022/06/25 12:57:36;;;;;;;0.40;0.40;;;24.70;68.50;;;;;;5076745;28;20032;-72
2022/06/25 13:00:15;;;;;;;0.50;0.50;;;24.60;68.50;;;;;;5094472;28;20108;-71
2022/06/25 13:02:41;;;;;;;0.47;0.47;;;24.70;68.70;;;;;;5094606;28;20051;-71
2022/06/25 13:05:07;;;;;;;0.50;0.50;;;24.90;68.20;;;;;;5094301;28;20047;-71
2022/06/25 13:07:33;;;;;;;0.50;0.50;;;24.90;67.90;;;;;;5094508;28;20040;-72